Terminal Aerodrome Forecast
Issued by NWS

Home | Current Version | Previous Version | Text Only | Print | Product List | Glossary On
Versions: 1 2 3 4 5 6 7 8 9 10 11 12 13 14
877
FTUS46 KMTR 181729
TAFMRY
TAF
KMRY 181729Z 1818/1918 24008KT P6SM SCT014
     FM182000 27017G22KT P6SM SCT020
      TEMPO 1820/1824 BKN020
     FM190000 27010G16KT P6SM OVC020
     FM191000 26010KT P6SM VCSH OVC015
     FM191200 25014KT P6SM OVC030
      TEMPO 1912/1916 -SHRA OVC020
     FM191600 24012KT P6SM VCSH BKN040=

USA.gov is the U.S. government's official web portal to all federal, state and local government web resources and services.